Time;durP1;ratioP1;P1;durP2;ratioP2;P2;SDS_P1;SDS_P2;PMS_P1;PMS_P2;Temp;Humidity;BMP_temperature;BMP_pressure;BME280_temperature;BME280_humidity;BME280_pressure;Samples;Min_cycle;Max_cycle;Signal;HPM_P1;HPM_P2
2022/05/17 00:02:16;;;;;;;;;;;19.30;91.40;;;;;;4329907;33;43844;-77
2022/05/17 00:04:50;;;;;;;;;;;19.30;91.20;;;;;;4330602;33;43095;-77
2022/05/17 00:07:17;;;;;;;;;;;19.30;91.20;;;;;;4330877;33;43729;-77
2022/05/17 00:09:52;;;;;;;;;;;19.30;91.20;;;;;;4330586;33;43857;-77
2022/05/17 00:12:25;;;;;;;;;;;19.20;91.30;;;;;;4319372;33;43032;-77
2022/05/17 00:15:00;;;;;;;;;;;19.30;91.50;;;;;;4334027;33;20002;-77
2022/05/17 00:17:30;;;;;;;;;;;19.20;91.40;;;;;;4333026;33;42906;-77
2022/05/17 00:20:00;;;;;;;;;;;19.20;91.40;;;;;;4332907;33;43660;-76
2022/05/17 00:22:30;;;;;;;;;;;19.20;91.40;;;;;;4319750;33;42895;-76
2022/05/17 00:25:00;;;;;;;;;;;19.20;91.40;;;;;;4333315;33;42055;-76
2022/05/17 00:27:33;;;;;;;;;;;19.20;91.70;;;;;;4319540;33;44299;-77
2022/05/17 00:30:10;;;;;;;;;;;19.20;91.70;;;;;;4320475;33;43005;-77
2022/05/17 00:32:37;;;;;;;;;;;19.20;91.60;;;;;;4333547;33;45776;-77
2022/05/17 00:35:04;;;;;;;;;;;19.20;91.70;;;;;;4319661;33;44183;-77
2022/05/17 00:37:33;;;;;;;;;;;19.20;91.60;;;;;;4332793;33;43197;-76
2022/05/17 00:40:11;;;;;;;;;;;19.20;91.60;;;;;;4320355;33;43187;-76
2022/05/17 00:42:44;;;;;;;;;;;19.10;91.40;;;;;;4333303;33;42872;-77
2022/05/17 00:45:19;;;;;;;;;;;19.10;91.70;;;;;;4320838;33;20382;-77
2022/05/17 00:47:55;;;;;;;;;;;19.10;91.70;;;;;;4320187;33;43844;-77
2022/05/17 00:50:28;;;;;;;;;;;19.00;91.60;;;;;;4332624;33;43622;-77
2022/05/17 00:52:58;;;;;;;;;;;19.10;91.80;;;;;;4333136;33;44273;-77
2022/05/17 00:55:33;;;;;;;;;;;19.00;91.70;;;;;;4319647;33;43220;-76
2022/05/17 00:58:08;;;;;;;;;;;19.00;91.70;;;;;;4319821;33;45962;-76
2022/05/17 01:00:38;;;;;;;;;;;18.90;91.80;;;;;;4332999;33;43696;-77
2022/05/17 01:03:15;;;;;;;;;;;18.90;91.90;;;;;;4332361;33;44970;-77
2022/05/17 01:05:47;;;;;;;;;;;18.90;91.90;;;;;;4319828;33;43283;-77
2022/05/17 01:08:16;;;;;;;;;;;18.90;92.00;;;;;;4319360;33;43036;-77
2022/05/17 01:10:50;;;;;;;;;;;18.90;92.10;;;;;;4319738;33;43200;-77
2022/05/17 01:16:05;;;;;;;;;;;18.90;91.90;;;;;;4332372;33;44140;-77
2022/05/17 01:18:41;;;;;;;;;;;18.90;92.00;;;;;;4319569;33;43696;-76
2022/05/17 01:21:14;;;;;;;;;;;18.90;92.10;;;;;;4332595;33;43996;-76
2022/05/17 01:23:49;;;;;;;;;;;18.90;92.00;;;;;;4331725;33;42841;-76
2022/05/17 01:26:22;;;;;;;;;;;18.80;92.00;;;;;;4332563;33;43858;-77
2022/05/17 01:28:52;;;;;;;;;;;18.80;92.10;;;;;;4332682;33;43970;-77
2022/05/17 01:31:20;;;;;;;;;;;18.80;92.10;;;;;;4319345;33;43687;-77
2022/05/17 01:33:47;;;;;;;;;;;18.80;92.20;;;;;;4318847;33;42522;-77
2022/05/17 01:36:21;;;;;;;;;;;18.80;92.10;;;;;;4332348;33;44011;-77
2022/05/17 01:38:50;;;;;;;;;;;18.80;92.20;;;;;;4319437;33;43018;-77
2022/05/17 01:41:26;;;;;;;;;;;18.70;92.30;;;;;;4331815;33;44048;-77
2022/05/17 01:43:59;;;;;;;;;;;18.70;92.30;;;;;;4319232;33;43795;-77
2022/05/17 01:46:27;;;;;;;;;;;18.70;92.40;;;;;;4320505;33;20014;-76
2022/05/17 01:49:00;;;;;;;;;;;18.70;92.50;;;;;;4318730;33;43482;-76
2022/05/17 01:51:27;;;;;;;;;;;18.70;92.60;;;;;;4318596;33;42604;-77
2022/05/17 01:53:57;;;;;;;;;;;18.70;92.50;;;;;;4318876;33;42987;-76
2022/05/17 01:56:27;;;;;;;;;;;18.70;92.60;;;;;;4318703;33;42543;-77
2022/05/17 01:59:00;;;;;;;;;;;18.70;92.60;;;;;;4331618;33;44215;-77
2022/05/17 02:01:27;;;;;;;;;;;18.70;92.60;;;;;;4331855;33;45729;-77
2022/05/17 02:03:57;;;;;;;;;;;18.70;92.60;;;;;;4332149;33;42515;-77
2022/05/17 02:06:32;;;;;;;;;;;18.70;92.60;;;;;;4318413;33;43845;-77
2022/05/17 02:09:05;;;;;;;;;;;18.70;92.70;;;;;;4332017;33;43841;-77
2022/05/17 02:11:37;;;;;;;;;;;18.70;92.70;;;;;;4331995;33;43853;-77
2022/05/17 02:14:05;;;;;;;;;;;18.70;92.80;;;;;;4318685;33;44599;-77
2022/05/17 02:16:39;;;;;;;;;;;18.70;92.70;;;;;;4332924;33;19998;-77
2022/05/17 02:19:09;;;;;;;;;;;18.70;92.60;;;;;;4332138;33;43320;-76
2022/05/17 02:21:36;;;;;;;;;;;18.60;92.60;;;;;;4331505;33;44743;-76
2022/05/17 02:24:03;;;;;;;;;;;18.60;92.60;;;;;;4318274;33;43189;-77
2022/05/17 02:26:31;;;;;;;;;;;18.60;92.80;;;;;;4331886;33;44215;-77
2022/05/17 02:29:01;;;;;;;;;;;18.60;92.90;;;;;;4331229;33;42469;-77
2022/05/17 02:31:31;;;;;;;;;;;18.60;92.90;;;;;;4331723;33;43649;-77
2022/05/17 02:34:01;;;;;;;;;;;18.60;93.00;;;;;;4331157;33;43663;-77
2022/05/17 02:36:29;;;;;;;;;;;18.50;93.00;;;;;;4331382;33;42477;-77
2022/05/17 02:38:56;;;;;;;;;;;18.50;93.10;;;;;;4318426;33;43473;-77
2022/05/17 02:41:23;;;;;;;;;;;18.50;93.20;;;;;;4331483;33;44203;-77
2022/05/17 02:43:56;;;;;;;;;;;18.50;93.20;;;;;;4331043;33;42886;-77
2022/05/17 02:46:28;;;;;;;;;;;18.50;93.30;;;;;;4331718;33;42259;-77
2022/05/17 02:48:55;;;;;;;;;;;18.50;93.40;;;;;;4331333;33;43782;-77
2022/05/17 02:51:30;;;;;;;;;;;18.50;93.40;;;;;;4317983;33;42654;-77
2022/05/17 02:53:57;;;;;;;;;;;18.50;93.50;;;;;;4330965;33;42582;-77
2022/05/17 02:56:24;;;;;;;;;;;18.50;93.50;;;;;;4331250;33;43511;-77
2022/05/17 02:58:57;;;;;;;;;;;18.50;93.60;;;;;;4317642;33;43631;-77
2022/05/17 03:01:24;;;;;;;;;;;18.50;93.70;;;;;;4318044;33;43760;-76
2022/05/17 03:03:54;;;;;;;;;;;18.50;93.70;;;;;;4317917;33;42494;-77
2022/05/17 03:06:23;;;;;;;;;;;18.50;93.80;;;;;;4317525;33;44179;-77
2022/05/17 03:08:50;;;;;;;;;;;18.50;93.80;;;;;;4318096;33;43697;-77
2022/05/17 03:11:19;;;;;;;;;;;18.50;93.90;;;;;;4331181;33;42988;-77
2022/05/17 03:13:54;;;;;;;;;;;18.50;94.00;;;;;;4317392;33;43249;-77
2022/05/17 03:16:27;;;;;;;;;;;18.50;94.00;;;;;;4330897;33;43534;-77
2022/05/17 03:19:00;;;;;;;;;;;18.50;94.10;;;;;;4332155;33;20036;-77
2022/05/17 03:21:33;;;;;;;;;;;18.50;94.20;;;;;;4318061;33;43040;-77
2022/05/17 03:24:01;;;;;;;;;;;18.50;94.20;;;;;;4317512;33;42578;-77
2022/05/17 03:26:37;;;;;;;;;;;18.50;94.30;;;;;;4330430;33;43697;-77
2022/05/17 03:29:07;;;;;;;;;;;18.50;94.30;;;;;;4330492;33;42954;-77
2022/05/17 03:31:35;;;;;;;;;;;18.40;94.30;;;;;;4330969;33;43089;-77
2022/05/17 03:34:06;;;;;;;;;;;18.50;94.40;;;;;;4317848;33;42914;-77
2022/05/17 03:36:42;;;;;;;;;;;18.50;94.40;;;;;;4330932;33;43633;-77
2022/05/17 03:39:11;;;;;;;;;;;18.50;94.40;;;;;;4330890;33;43811;-77
2022/05/17 03:41:44;;;;;;;;;;;18.50;94.50;;;;;;4317449;33;42151;-77
2022/05/17 03:44:15;;;;;;;;;;;18.40;94.40;;;;;;4330789;33;43181;-77
2022/05/17 03:46:47;;;;;;;;;;;18.50;94.40;;;;;;4317184;33;43727;-77
2022/05/17 03:49:20;;;;;;;;;;;18.50;94.50;;;;;;4318171;33;20048;-77
2022/05/17 03:51:50;;;;;;;;;;;18.40;94.50;;;;;;4330812;33;43899;-77
2022/05/17 03:54:25;;;;;;;;;;;18.40;94.50;;;;;;4317508;33;43490;-77
2022/05/17 03:56:58;;;;;;;;;;;18.40;94.60;;;;;;4317441;33;42894;-77
2022/05/17 03:59:25;;;;;;;;;;;18.40;94.60;;;;;;4330401;33;43438;-77
2022/05/17 04:01:58;;;;;;;;;;;18.40;94.50;;;;;;4329830;33;43179;-76
2022/05/17 04:04:26;;;;;;;;;;;18.40;94.60;;;;;;4317271;33;43074;-77
2022/05/17 04:06:56;;;;;;;;;;;18.40;94.70;;;;;;4330020;33;44309;-77
2022/05/17 04:09:28;;;;;;;;;;;18.40;94.60;;;;;;4330276;33;43447;-77
2022/05/17 04:12:01;;;;;;;;;;;18.40;94.60;;;;;;4330805;33;43008;-77
2022/05/17 04:14:36;;;;;;;;;;;18.40;94.70;;;;;;4330870;33;43668;-77
2022/05/17 04:17:07;;;;;;;;;;;18.40;94.70;;;;;;4317338;33;45850;-77
2022/05/17 04:19:40;;;;;;;;;;;18.40;94.70;;;;;;4330940;33;20430;-77
2022/05/17 04:22:08;;;;;;;;;;;18.40;94.60;;;;;;4330053;33;42932;-77
2022/05/17 04:24:41;;;;;;;;;;;18.40;94.60;;;;;;4330560;33;43281;-77
2022/05/17 04:27:09;;;;;;;;;;;18.40;94.60;;;;;;4317341;33;43588;-77
2022/05/17 04:29:40;;;;;;;;;;;18.40;94.60;;;;;;4317272;33;44033;-77
2022/05/17 04:32:11;;;;;;;;;;;18.40;94.50;;;;;;4317106;33;44228;-77
2022/05/17 04:34:41;;;;;;;;;;;18.40;94.60;;;;;;4330405;33;42457;-77
2022/05/17 04:37:13;;;;;;;;;;;18.40;94.60;;;;;;4317393;33;43904;-77
2022/05/17 04:39:43;;;;;;;;;;;18.40;94.60;;;;;;4330196;33;43843;-77
2022/05/17 04:42:19;;;;;;;;;;;18.40;94.70;;;;;;4330411;33;43103;-77
2022/05/17 04:44:46;;;;;;;;;;;18.40;94.70;;;;;;4330508;33;44258;-77
2022/05/17 04:47:16;;;;;;;;;;;18.40;94.70;;;;;;4317093;33;45303;-77
2022/05/17 04:49:46;;;;;;;;;;;18.30;94.70;;;;;;4330536;33;19998;-77
2022/05/17 04:52:16;;;;;;;;;;;18.30;94.70;;;;;;4330293;33;43789;-77
2022/05/17 04:54:54;;;;;;;;;;;18.30;94.70;;;;;;4329733;33;43647;-77
2022/05/17 04:57:24;;;;;;;;;;;18.30;94.70;;;;;;4331067;33;44011;-77
2022/05/17 04:59:59;;;;;;;;;;;18.30;94.70;;;;;;4319979;33;43687;-77
2022/05/17 05:02:32;;;;;;;;;;;18.30;94.80;;;;;;4319518;33;44708;-77
2022/05/17 05:05:02;;;;;;;;;;;18.30;94.80;;;;;;4332434;33;44307;-77
2022/05/17 05:07:29;;;;;;;;;;;18.30;94.70;;;;;;4319613;33;43626;-77
2022/05/17 05:10:03;;;;;;;;;;;18.30;94.80;;;;;;4319185;33;42801;-77
2022/05/17 05:12:35;;;;;;;;;;;18.30;94.80;;;;;;4332851;33;43966;-77
2022/05/17 05:15:10;;;;;;;;;;;18.30;94.80;;;;;;4332813;33;43663;-77
2022/05/17 05:17:46;;;;;;;;;;;18.30;94.80;;;;;;4332316;33;42566;-77
2022/05/17 05:20:19;;;;;;;;;;;18.30;94.80;;;;;;4333465;33;20446;-77
2022/05/17 05:22:52;;;;;;;;;;;18.30;94.90;;;;;;4332497;33;44772;-77
2022/05/17 05:25:21;;;;;;;;;;;18.30;94.90;;;;;;4319029;33;43424;-77
2022/05/17 05:27:55;;;;;;;;;;;18.30;94.90;;;;;;4332032;33;42993;-77
2022/05/17 05:30:22;;;;;;;;;;;18.30;94.90;;;;;;4319494;33;43415;-77
2022/05/17 05:32:49;;;;;;;;;;;18.30;95.00;;;;;;4332526;33;44420;-77
2022/05/17 05:35:20;;;;;;;;;;;18.40;95.40;;;;;;4332581;33;42730;-77
2022/05/17 05:37:53;;;;;;;;;;;18.40;95.00;;;;;;4319376;33;43077;-77
2022/05/17 05:40:26;;;;;;;;;;;18.40;95.20;;;;;;4318763;33;42982;-77
2022/05/17 05:42:58;;;;;;;;;;;18.30;95.10;;;;;;4318894;33;43446;-77
2022/05/17 05:45:30;;;;;;;;;;;18.40;95.20;;;;;;4319092;33;44691;-77
2022/05/17 05:48:00;;;;;;;;;;;18.30;95.00;;;;;;4318728;33;45515;-77
2022/05/17 05:50:32;;;;;;;;;;;18.40;95.00;;;;;;4332680;33;20361;-77
2022/05/17 05:53:12;;;;;;;;;;;18.40;95.10;;;;;;4319219;33;45818;-77
2022/05/17 05:55:51;;;;;;;;;;;18.40;95.30;;;;;;4332333;33;44183;-77
2022/05/17 05:58:18;;;;;;;;;;;18.40;95.50;;;;;;4319159;33;43712;-77
2022/05/17 06:00:47;;;;;;;;;;;18.40;95.30;;;;;;4318916;33;43771;-77
2022/05/17 06:03:17;;;;;;;;;;;18.40;95.40;;;;;;4316045;33;43472;-77
2022/05/17 06:05:55;;;;;;;;;;;18.40;95.50;;;;;;4317318;33;43691;-77
2022/05/17 06:08:29;;;;;;;;;;;18.40;95.50;;;;;;4316920;33;42031;-77
2022/05/17 06:11:04;;;;;;;;;;;18.40;95.50;;;;;;4316183;33;43104;-77
2022/05/17 06:13:36;;;;;;;;;;;18.40;95.60;;;;;;4316420;33;44324;-77
2022/05/17 06:16:09;;;;;;;;;;;18.40;95.50;;;;;;4317214;33;43694;-77
2022/05/17 06:18:38;;;;;;;;;;;18.40;95.40;;;;;;4316345;33;43074;-77
2022/05/17 06:21:05;;;;;;;;;;;18.40;95.50;;;;;;4317227;33;42847;-77
2022/05/17 06:23:40;;;;;;;;;;;18.40;95.50;;;;;;4317145;33;44058;-77
2022/05/17 06:26:16;;;;;;;;;;;18.40;95.70;;;;;;4316077;33;43060;-77
2022/05/17 06:28:50;;;;;;;;;;;18.40;95.60;;;;;;4316120;33;44012;-77
2022/05/17 06:31:17;;;;;;;;;;;18.40;95.70;;;;;;4315863;33;45124;-77
2022/05/17 06:33:50;;;;;;;;;;;18.40;95.70;;;;;;4316972;33;45816;-77
2022/05/17 06:36:17;;;;;;;;;;;18.40;95.60;;;;;;4316060;33;42465;-77
2022/05/17 06:39:08;;;;;;;;;;;18.40;95.60;;;;;;4317036;33;46010;-77
2022/05/17 06:41:38;;;;;;;;;;;18.40;95.60;;;;;;4315975;33;43690;-77
2022/05/17 06:44:06;;;;;;;;;;;18.40;95.60;;;;;;4315281;33;43867;-77
2022/05/17 06:46:44;;;;;;;;;;;18.40;95.50;;;;;;4316648;33;42893;-77
2022/05/17 06:49:17;;;;;;;;;;;18.40;95.50;;;;;;4315529;33;43669;-77
2022/05/17 06:51:47;;;;;;;;;;;18.40;95.50;;;;;;4317099;33;44214;-78
2022/05/17 06:54:19;;;;;;;;;;;18.40;95.60;;;;;;4316833;33;45701;-78
2022/05/17 06:56:49;;;;;;;;;;;18.40;95.60;;;;;;4316314;33;43714;-78
2022/05/17 06:59:23;;;;;;;;;;;18.40;95.60;;;;;;4316285;33;43359;-78
2022/05/17 07:01:57;;;;;;;;;;;18.50;95.90;;;;;;4319686;33;43251;-78
2022/05/17 07:04:28;;;;;;;;;;;18.40;95.80;;;;;;4318178;33;43973;-79
2022/05/17 07:07:05;;;;;;;;;;;18.50;95.90;;;;;;4331171;33;45995;-79
2022/05/17 07:09:40;;;;;;;;;;;18.40;96.00;;;;;;4331430;33;43964;-78
2022/05/17 07:14:59;;;;;;;;;;;18.50;96.20;;;;;;4331122;33;42760;-79
2022/05/17 07:17:29;;;;;;;;;;;18.50;96.30;;;;;;4317601;33;43685;-78
2022/05/17 07:20:00;;;;;;;;;;;18.50;96.30;;;;;;4330754;33;42858;-79
2022/05/17 07:22:33;;;;;;;;;;;18.50;96.40;;;;;;4318083;33;20415;-78
2022/05/17 07:25:09;;;;;;;;;;;18.50;96.50;;;;;;4318237;33;43045;-78
2022/05/17 07:27:47;;;;;;;;;;;18.50;96.70;;;;;;4331163;33;44271;-79
2022/05/17 07:30:15;;;;;;;;;;;18.50;96.70;;;;;;4317398;33;42934;-79
2022/05/17 07:32:47;;;;;;;;;;;18.50;96.70;;;;;;4330337;33;44801;-78
2022/05/17 07:35:23;;;;;;;;;;;18.50;96.80;;;;;;4317262;33;42784;-79
2022/05/17 07:37:56;;;;;;;;;;;18.50;97.00;;;;;;4331043;33;44267;-80
2022/05/17 07:40:26;;;;;;;;;;;18.50;96.80;;;;;;4330980;33;43794;-79
2022/05/17 07:42:54;;;;;;;;;;;18.50;96.80;;;;;;4317426;33;43038;-79
2022/05/17 07:45:24;;;;;;;;;;;18.50;96.80;;;;;;4317251;33;43713;-79
2022/05/17 07:47:57;;;;;;;;;;;18.60;96.80;;;;;;4330395;33;43942;-76
2022/05/17 07:50:29;;;;;;;;;;;18.50;96.90;;;;;;4330691;33;43434;-77
2022/05/17 07:53:07;;;;;;;;;;;18.60;96.80;;;;;;4331896;33;20003;-77
2022/05/17 07:55:35;;;;;;;;;;;18.50;96.80;;;;;;4316987;33;42922;-77
2022/05/17 07:58:09;;;;;;;;;;;18.50;97.10;;;;;;4330776;33;43212;-77
2022/05/17 08:00:37;;;;;;;;;;;18.50;96.80;;;;;;4330156;33;42934;-77
2022/05/17 08:03:08;;;;;;;;;;;18.50;97.10;;;;;;4316779;33;43195;-77
2022/05/17 08:05:36;;;;;;;;;;;18.50;97.20;;;;;;4330530;33;43061;-77
2022/05/17 08:08:03;;;;;;;;;;;18.60;97.30;;;;;;4317409;33;44232;-76
2022/05/17 08:10:30;;;;;;;;;;;18.60;97.10;;;;;;4330086;33;42516;-77
2022/05/17 08:13:00;;;;;;;;;;;18.60;96.90;;;;;;4330518;33;44320;-77
2022/05/17 08:15:38;;;;;;;;;;;18.60;96.90;;;;;;4330615;33;43187;-77
2022/05/17 08:18:08;;;;;;;;;;;18.60;97.40;;;;;;4330545;33;43085;-77
2022/05/17 08:20:36;;;;;;;;;;;18.60;97.20;;;;;;4317330;33;42667;-77
2022/05/17 08:23:04;;;;;;;;;;;18.60;97.70;;;;;;4330532;33;23084;-77
2022/05/17 08:28:18;;;;;;;;;;;18.60;97.50;;;;;;4330597;33;43887;-77
2022/05/17 08:30:50;;;;;;;;;;;18.60;97.60;;;;;;4329874;33;43608;-77
2022/05/17 08:33:19;;;;;;;;;;;18.60;97.70;;;;;;4332045;33;42489;-77
2022/05/17 08:35:46;;;;;;;;;;;18.60;97.50;;;;;;4333084;33;42861;-77
2022/05/17 08:38:15;;;;;;;;;;;18.60;97.60;;;;;;4319722;33;41886;-77
2022/05/17 08:40:52;;;;;;;;;;;18.60;97.80;;;;;;4319869;33;43642;-77
2022/05/17 08:43:31;;;;;;;;;;;18.60;97.80;;;;;;4333256;33;44149;-77
2022/05/17 08:46:03;;;;;;;;;;;18.60;98.00;;;;;;4332773;33;42534;-76
2022/05/17 08:48:43;;;;;;;;;;;18.60;97.60;;;;;;4333226;33;45975;-77
2022/05/17 08:51:14;;;;;;;;;;;18.60;97.70;;;;;;4332697;33;43654;-78
2022/05/17 08:53:45;;;;;;;;;;;18.60;97.90;;;;;;4319883;33;43440;-77
2022/05/17 08:56:12;;;;;;;;;;;18.60;98.20;;;;;;4332737;33;43656;-77
2022/05/17 08:58:51;;;;;;;;;;;18.60;97.70;;;;;;4319492;33;43169;-77
2022/05/17 09:01:47;;;;;;;;;;;18.60;97.80;;;;;;4333080;33;43493;-77
2022/05/17 09:04:29;;;;;;;;;;;18.60;97.80;;;;;;4302710;33;42930;-77
2022/05/17 09:07:25;;;;;;;;;;;18.60;97.80;;;;;;4302576;33;44876;-77
2022/05/17 09:10:03;;;;;;;;;;;18.60;97.80;;;;;;4302283;33;43554;-77
2022/05/17 09:12:50;;;;;;;;;;;18.70;97.90;;;;;;4303726;33;43611;-78
2022/05/17 09:15:25;;;;;;;;;;;18.70;97.70;;;;;;4303782;33;44752;-77
2022/05/17 09:17:57;;;;;;;;;;;18.70;98.20;;;;;;4303662;33;45688;-77
2022/05/17 09:20:28;;;;;;;;;;;18.70;98.10;;;;;;4304050;33;43705;-77
2022/05/17 09:22:58;;;;;;;;;;;18.70;98.00;;;;;;4302467;33;43100;-77
2022/05/17 09:25:43;;;;;;;;;;;18.70;98.30;;;;;;4304383;33;20006;-78
2022/05/17 09:28:10;;;;;;;;;;;18.80;98.90;;;;;;4303547;33;43490;-77
2022/05/17 09:30:40;;;;;;;;;;;18.80;98.60;;;;;;4301897;33;42940;-77
2022/05/17 09:33:25;;;;;;;;;;;18.80;98.40;;;;;;4302936;33;42791;-78
2022/05/17 09:35:56;;;;;;;;;;;18.80;98.40;;;;;;4302354;33;45814;-78
2022/05/17 09:38:23;;;;;;;;;;;18.80;98.50;;;;;;4303013;33;42556;-78
2022/05/17 09:40:51;;;;;;;;;;;18.90;98.20;;;;;;4302144;33;42646;-79
2022/05/17 09:43:35;;;;;;;;;;;18.80;98.10;;;;;;4302961;33;44312;-77
2022/05/17 09:46:09;;;;;;;;;;;18.90;98.00;;;;;;4303127;33;42792;-78
2022/05/17 09:54:33;;;;;;;;;;;18.90;98.10;;;;;;4303084;33;44529;-78
2022/05/17 09:57:13;;;;;;;;;;;18.90;98.00;;;;;;4302762;33;42948;-78
2022/05/17 09:59:43;;;;;;;;;;;18.90;97.90;;;;;;4302742;33;42886;-79
2022/05/17 10:02:28;;;;;;;;;;;18.90;98.10;;;;;;4309384;33;42855;-78
2022/05/17 10:05:04;;;;;;;;;;;19.00;98.10;;;;;;4318916;33;43734;-78
2022/05/17 10:07:31;;;;;;;;;;;19.00;97.80;;;;;;4318628;33;42751;-80
2022/05/17 10:10:03;;;;;;;;;;;19.00;98.00;;;;;;4331849;33;43694;-79
2022/05/17 10:12:36;;;;;;;;;;;19.00;97.90;;;;;;4318945;33;43087;-78
2022/05/17 10:15:16;;;;;;;;;;;19.00;97.90;;;;;;4331934;33;43076;-79
2022/05/17 10:17:49;;;;;;;;;;;19.00;98.20;;;;;;4332009;33;44789;-78
2022/05/17 10:20:19;;;;;;;;;;;19.00;97.90;;;;;;4318929;33;43726;-79
2022/05/17 10:22:46;;;;;;;;;;;19.00;97.70;;;;;;4331351;33;42053;-79
2022/05/17 10:25:25;;;;;;;;;;;19.00;97.70;;;;;;4318558;33;43614;-79
2022/05/17 10:27:58;;;;;;;;;;;19.10;97.60;;;;;;4318949;33;19993;-79
2022/05/17 10:30:32;;;;;;;;;;;19.10;97.60;;;;;;4331930;33;43830;-78
2022/05/17 10:33:08;;;;;;;;;;;19.10;97.70;;;;;;4318723;33;43726;-78
2022/05/17 10:35:42;;;;;;;;;;;19.10;97.60;;;;;;4331663;33;42633;-79
2022/05/17 10:38:16;;;;;;;;;;;19.10;97.60;;;;;;4331629;33;44232;-78
2022/05/17 10:40:50;;;;;;;;;;;19.10;97.70;;;;;;4318692;33;45170;-78
2022/05/17 10:43:27;;;;;;;;;;;19.20;97.70;;;;;;4318507;33;37259;-78
2022/05/17 10:46:11;;;;;;;;;;;19.20;97.60;;;;;;4318441;33;43734;-78
2022/05/17 10:48:58;;;;;;;;;;;19.20;97.50;;;;;;4331364;33;43177;-77
2022/05/17 10:51:33;;;;;;;;;;;19.20;96.90;;;;;;4331186;33;41986;-78
2022/05/17 10:54:15;;;;;;;;;;;19.30;97.20;;;;;;4331495;33;44832;-77
2022/05/17 10:56:45;;;;;;;;;;;19.30;97.20;;;;;;4331235;33;42874;-77
2022/05/17 10:59:25;;;;;;;;;;;19.30;97.80;;;;;;4330930;33;43665;-79
2022/05/17 11:02:27;;;;;;;;;;;19.40;97.40;;;;;;4317992;33;43727;-77
2022/05/17 11:05:13;;;;;;;;;;;19.40;97.50;;;;;;4317946;33;43242;-78
2022/05/17 11:07:59;;;;;;;;;;;19.40;96.40;;;;;;4331261;33;43414;-78
2022/05/17 11:10:30;;;;;;;;;;;19.50;96.50;;;;;;4331376;33;43732;-78
2022/05/17 11:13:17;;;;;;;;;;;19.50;96.60;;;;;;4317587;33;43548;-78
2022/05/17 11:15:57;;;;;;;;;;;19.50;96.60;;;;;;4317443;33;42392;-79
2022/05/17 11:18:45;;;;;;;;;;;19.50;96.70;;;;;;4317812;33;43900;-78
2022/05/17 11:21:26;;;;;;;;;;;19.60;96.90;;;;;;4312830;33;42780;-78
2022/05/17 11:24:03;;;;;;;;;;;19.60;96.90;;;;;;4330703;33;43619;-78
2022/05/17 11:26:57;;;;;;;;;;;19.60;96.50;;;;;;4318109;33;43032;-79
2022/05/17 11:29:44;;;;;;;;;;;19.60;95.80;;;;;;4331330;33;22913;-78
2022/05/17 11:32:26;;;;;;;;;;;19.60;95.70;;;;;;4331008;33;44072;-78
2022/05/17 11:35:02;;;;;;;;;;;19.70;95.80;;;;;;4330844;33;43889;-79
2022/05/17 11:37:32;;;;;;;;;;;19.70;96.10;;;;;;4331187;33;45006;-78
2022/05/17 11:40:10;;;;;;;;;;;19.70;96.00;;;;;;4317415;33;43709;-79
2022/05/17 11:45:54;;;;;;;;;;;19.70;96.50;;;;;;4330839;33;44362;-80
2022/05/17 11:48:24;;;;;;;;;;;19.80;96.70;;;;;;4317217;33;42860;-79
2022/05/17 11:50:55;;;;;;;;;;;19.80;96.80;;;;;;4317841;33;43268;-79
2022/05/17 11:53:25;;;;;;;;;;;19.80;96.80;;;;;;4317382;33;45732;-80
2022/05/17 11:56:23;;;;;;;;;;;19.90;96.80;;;;;;4330969;33;43482;-79
2022/05/17 11:58:57;;;;;;;;;;;19.90;96.60;;;;;;4313341;33;42743;-79
2022/05/17 12:01:27;;;;;;;;;;;20.00;96.50;;;;;;4317624;33;44060;-79
2022/05/17 12:04:24;;;;;;;;;;;20.00;96.10;;;;;;4317151;33;43862;-78
2022/05/17 12:06:51;;;;;;;;;;;20.00;96.10;;;;;;4316874;33;43225;-78
2022/05/17 12:09:29;;;;;;;;;;;20.00;96.10;;;;;;4330046;33;44175;-78
2022/05/17 12:12:16;;;;;;;;;;;20.10;96.30;;;;;;4330177;33;43683;-79
2022/05/17 12:14:55;;;;;;;;;;;20.10;96.40;;;;;;4330029;33;43021;-79
2022/05/17 12:17:29;;;;;;;;;;;20.20;96.40;;;;;;4330389;33;43191;-77
2022/05/17 12:20:10;;;;;;;;;;;20.20;96.30;;;;;;4330287;33;42917;-77
2022/05/17 12:22:52;;;;;;;;;;;20.30;96.30;;;;;;4317651;33;42641;-78
2022/05/17 12:25:19;;;;;;;;;;;20.30;96.10;;;;;;4317547;33;44150;-77
2022/05/17 12:27:49;;;;;;;;;;;20.30;96.20;;;;;;4330792;33;43754;-77
2022/05/17 12:33:16;;;;;;;;;;;20.40;96.00;;;;;;4331103;33;20010;-79
2022/05/17 12:35:46;;;;;;;;;;;20.40;95.90;;;;;;4330438;33;43812;-78
2022/05/17 12:44:04;;;;;;;;;;;20.50;96.00;;;;;;4330099;33;43615;-78
2022/05/17 12:46:37;;;;;;;;;;;20.60;95.90;;;;;;4330196;33;45214;-77
2022/05/17 12:49:33;;;;;;;;;;;20.60;95.90;;;;;;4317173;33;43878;-78
2022/05/17 12:52:12;;;;;;;;;;;20.60;95.80;;;;;;4329048;33;44289;-77
2022/05/17 12:54:39;;;;;;;;;;;20.60;95.80;;;;;;4330137;33;43391;-78
2022/05/17 12:57:25;;;;;;;;;;;20.70;96.10;;;;;;4330322;33;43482;-78
2022/05/17 13:00:08;;;;;;;;;;;20.70;95.90;;;;;;4330174;33;42114;-79
2022/05/17 13:02:39;;;;;;;;;;;20.60;95.70;;;;;;4329867;33;44964;-78
2022/05/17 13:05:27;;;;;;;;;;;20.70;95.70;;;;;;4317655;33;20005;-78
2022/05/17 13:08:05;;;;;;;;;;;20.70;95.40;;;;;;4329931;33;44167;-78
2022/05/17 13:10:40;;;;;;;;;;;20.70;95.70;;;;;;4316996;33;45703;-79
2022/05/17 13:13:20;;;;;;;;;;;20.70;96.30;;;;;;4316943;33;43584;-79
2022/05/17 13:15:49;;;;;;;;;;;20.70;96.40;;;;;;4329752;33;42422;-78
2022/05/17 13:18:17;;;;;;;;;;;20.70;96.20;;;;;;4329692;33;42945;-78
2022/05/17 13:20:48;;;;;;;;;;;20.70;96.00;;;;;;4319286;33;43537;-79
2022/05/17 13:23:18;;;;;;;;;;;20.70;95.90;;;;;;4332810;33;44832;-78
2022/05/17 13:25:46;;;;;;;;;;;20.80;96.00;;;;;;4319543;33;43616;-77
2022/05/17 13:28:23;;;;;;;;;;;20.80;95.90;;;;;;4332302;33;42994;-77
2022/05/17 13:31:01;;;;;;;;;;;20.80;95.90;;;;;;4319473;33;42769;-78
2022/05/17 13:33:37;;;;;;;;;;;20.80;95.90;;;;;;4332676;33;43856;-78
2022/05/17 13:36:15;;;;;;;;;;;20.80;95.90;;;;;;4333251;33;20005;-79
2022/05/17 13:38:45;;;;;;;;;;;20.80;96.00;;;;;;4332197;33;42646;-83
2022/05/17 13:41:21;;;;;;;;;;;20.80;95.90;;;;;;4332287;33;43225;-77
2022/05/17 13:43:58;;;;;;;;;;;20.80;96.20;;;;;;4319158;33;43020;-77
2022/05/17 13:46:32;;;;;;;;;;;20.90;96.30;;;;;;4319187;33;43702;-78
2022/05/17 13:49:16;;;;;;;;;;;20.90;96.40;;;;;;4319529;33;44292;-78
2022/05/17 13:51:49;;;;;;;;;;;20.90;96.50;;;;;;4318626;33;43205;-77
2022/05/17 13:54:16;;;;;;;;;;;20.90;96.30;;;;;;4319194;33;44782;-79
2022/05/17 13:56:53;;;;;;;;;;;21.00;96.30;;;;;;4331763;33;42341;-77
2022/05/17 13:59:20;;;;;;;;;;;21.00;96.00;;;;;;4331923;33;43449;-77
2022/05/17 14:01:52;;;;;;;;;;;21.00;96.10;;;;;;4331671;33;43397;-79
2022/05/17 14:04:22;;;;;;;;;;;21.00;96.00;;;;;;4318857;33;43753;-78
2022/05/17 14:06:59;;;;;;;;;;;21.00;96.00;;;;;;4319605;33;19993;-78
2022/05/17 14:13:19;;;;;;;;;;;21.00;95.90;;;;;;4331531;33;42954;-77
2022/05/17 14:15:57;;;;;;;;;;;21.00;95.90;;;;;;4331979;33;42467;-77
2022/05/17 14:18:33;;;;;;;;;;;21.10;95.80;;;;;;4318501;33;42866;-78
2022/05/17 14:21:04;;;;;;;;;;;21.10;95.80;;;;;;4318591;33;42986;-78
2022/05/17 14:23:38;;;;;;;;;;;21.10;95.90;;;;;;4318991;33;43755;-77
2022/05/17 14:26:06;;;;;;;;;;;21.10;96.00;;;;;;4318674;33;42119;-77
2022/05/17 14:28:36;;;;;;;;;;;21.20;96.20;;;;;;4331300;33;44107;-77
2022/05/17 14:31:04;;;;;;;;;;;21.20;96.00;;;;;;4331057;33;42211;-77
2022/05/17 14:33:34;;;;;;;;;;;21.20;96.10;;;;;;4332038;33;43888;-77
2022/05/17 14:36:04;;;;;;;;;;;21.30;95.90;;;;;;4331530;33;42925;-77
2022/05/17 14:38:35;;;;;;;;;;;21.30;96.20;;;;;;4332401;33;20946;-77
2022/05/17 14:41:08;;;;;;;;;;;21.30;96.00;;;;;;4331602;33;44279;-77
2022/05/17 14:43:38;;;;;;;;;;;21.30;96.10;;;;;;4317907;33;43695;-78
2022/05/17 14:46:14;;;;;;;;;;;21.30;96.00;;;;;;4331680;33;43724;-77
2022/05/17 14:48:44;;;;;;;;;;;21.40;96.30;;;;;;4331357;33;43717;-78
2022/05/17 14:51:17;;;;;;;;;;;21.30;96.30;;;;;;4317947;33;43037;-78
2022/05/17 14:53:56;;;;;;;;;;;21.30;96.00;;;;;;4331020;33;42582;-77
2022/05/17 14:56:24;;;;;;;;;;;21.30;95.80;;;;;;4331641;33;43900;-78
2022/05/17 14:59:00;;;;;;;;;;;21.40;95.70;;;;;;4331244;33;42862;-77
2022/05/17 15:01:32;;;;;;;;;;;21.40;95.80;;;;;;4330884;33;42514;-78
2022/05/17 15:04:07;;;;;;;;;;;21.40;95.90;;;;;;4330678;33;43725;-78
2022/05/17 15:06:49;;;;;;;;;;;21.40;95.70;;;;;;4317733;33;44189;-77
2022/05/17 15:09:29;;;;;;;;;;;21.40;95.60;;;;;;4318238;33;24461;-77
2022/05/17 15:12:08;;;;;;;;;;;21.40;95.60;;;;;;4318782;33;43697;-77
2022/05/17 15:14:35;;;;;;;;;;;21.50;95.90;;;;;;4317626;33;42388;-77
2022/05/17 15:17:07;;;;;;;;;;;21.40;95.90;;;;;;4330785;33;43244;-77
2022/05/17 15:19:38;;;;;;;;;;;21.40;96.00;;;;;;4330819;33;43305;-77
2022/05/17 15:22:08;;;;;;;;;;;21.50;96.10;;;;;;4331045;33;43707;-78